Terminal Aerodrome Forecast
Issued by NWS

Home | Current Version | Previous Version | Text Only | Print | Product List | Glossary On
Versions: 1 2 3 4 5 6 7 8 9 10 11 12 13 14
088
FTUS43 KICT 231739
TAFRSL
TAF
KRSL 231739Z 2318/2418 34025G36KT P6SM SCT130
     FM240000 32014G20KT P6SM SKC
     FM240500 31013KT P6SM SKC WS020/34040KT
     FM241300 32017G25KT P6SM SKC
     FM241600 33024G35KT P6SM SKC=

USA.gov is the U.S. government's official web portal to all federal, state and local government web resources and services.